Time;durP1;ratioP1;P1;durP2;ratioP2;P2;SDS_P1;SDS_P2;PMS_P1;PMS_P2;Temp;Humidity;BMP_temperature;BMP_pressure;BME280_temperature;BME280_humidity;BME280_pressure;Samples;Min_cycle;Max_cycle;Signal;HPM_P1;HPM_P2
2023/06/24 00:00:11;;;;;;;6.28;1.80;;;;;;;21.11;68.54;100033.16;4472863;31;33065;-86
2023/06/24 00:02:45;;;;;;;0.70;0.65;;;;;;;21.53;66.39;100039.47;4477738;31;32067;-85
2023/06/24 00:05:12;;;;;;;0.73;0.73;;;;;;;21.65;66.26;100043.78;4482787;31;33941;-86
2023/06/24 00:07:47;;;;;;;1.08;0.98;;;;;;;21.88;65.14;100035.56;4470091;31;32202;-85
2023/06/24 00:10:14;;;;;;;0.50;0.50;;;;;;;21.60;66.95;100040.66;4468514;31;32476;-85
2023/06/24 00:12:45;;;;;;;0.98;0.98;;;;;;;21.47;67.12;100043.53;4476911;31;32540;-84
2023/06/24 00:15:13;;;;;;;1.35;1.25;;;;;;;21.19;67.77;100034.22;4485215;31;32520;-85
2023/06/24 00:17:41;;;;;;;1.90;1.58;;;;;;;21.55;66.09;100023.19;4484663;31;34776;-84
2023/06/24 00:20:13;;;;;;;0.60;0.47;;;;;;;21.67;66.30;100027.53;4483630;31;33258;-84
2023/06/24 00:22:43;;;;;;;1.10;1.00;;;;;;;21.49;67.28;100019.22;4471278;31;31851;-85
2023/06/24 00:25:12;;;;;;;0.20;0.20;;;;;;;21.54;66.53;100021.50;4477871;31;33306;-85
2023/06/24 00:27:40;;;;;;;0.60;0.60;;;;;;;21.35;67.65;100019.53;4476359;31;32634;-84
2023/06/24 00:30:09;;;;;;;0.65;0.65;;;;;;;21.16;68.08;100021.06;4471107;31;32385;-85
2023/06/24 00:32:36;;;;;;;0.45;0.45;;;;;;;21.49;66.79;100021.91;4468806;31;31579;-85
2023/06/24 00:35:04;;;;;;;0.62;0.62;;;;;;;21.49;66.66;100021.91;4463221;31;33754;-83
2023/06/24 00:37:32;;;;;;;2.00;1.23;;;;;;;21.68;65.39;100021.16;4482491;31;34262;-84
2023/06/24 00:40:00;;;;;;;1.55;1.35;;;;;;;21.76;65.05;100012.44;4480572;31;33299;-84
2023/06/24 00:42:28;;;;;;;1.00;0.95;;;;;;;21.81;64.99;100013.75;4467870;31;33606;-84
2023/06/24 00:44:55;;;;;;;2.05;1.02;;;;;;;21.93;64.87;100007.31;4470971;31;33704;-84
2023/06/24 00:47:23;;;;;;;0.57;0.50;;;;;;;21.58;65.52;100001.44;4471665;31;33247;-89
2023/06/24 00:49:51;;;;;;;6.32;1.48;;;;;;;21.70;64.90;100001.25;4466580;31;33059;-89
2023/06/24 00:52:20;;;;;;;4.55;1.45;;;;;;;21.72;64.97;99999.25;4465639;31;33577;-88
2023/06/24 00:54:48;;;;;;;1.05;0.80;;;;;;;21.25;66.88;99997.94;4475919;31;32481;-88
2023/06/24 00:57:17;;;;;;;2.08;1.75;;;;;;;21.26;66.87;100002.31;4460136;31;32242;-86
2023/06/24 00:59:45;;;;;;;0.60;0.60;;;;;;;21.38;66.20;100004.00;4472626;31;32719;-88
2023/06/24 01:02:13;;;;;;;0.70;0.70;;;;;;;20.86;68.25;100005.69;4473183;31;32942;-88
2023/06/24 01:04:41;;;;;;;0.75;0.68;;;;;;;21.43;65.80;99995.56;4470509;31;34620;-88
2023/06/24 01:07:09;;;;;;;1.12;1.00;;;;;;;21.41;65.83;99997.50;4454521;31;33579;-88
2023/06/24 01:09:36;;;;;;;0.62;0.62;;;;;;;21.33;66.04;99987.44;4462463;31;32759;-88
2023/06/24 01:12:06;;;;;;;0.80;0.80;;;;;;;21.23;66.71;99987.34;4467952;31;31861;-88
2023/06/24 01:14:35;;;;;;;1.02;0.85;;;;;;;21.44;65.36;99978.44;4485083;31;32275;-88
2023/06/24 01:17:13;;;;;;;0.30;0.30;;;;;;;21.19;66.61;99991.28;4461164;31;33284;-88
2023/06/24 01:20:11;;;;;;;1.60;1.50;;;;;;;21.41;65.37;99984.97;4469047;31;33082;-84
2023/06/24 01:23:18;;;;;;;1.42;0.70;;;;;;;21.52;64.73;99980.50;4461279;31;33904;-84
2023/06/24 01:26:13;;;;;;;0.70;0.70;;;;;;;21.62;64.10;99976.88;4448520;31;33428;-86
2023/06/24 01:29:00;;;;;;;0.80;0.80;;;;;;;21.15;65.34;99984.44;4489103;31;34780;-87
2023/06/24 01:31:43;;;;;;;2.30;1.00;;;;;;;21.43;64.12;99974.91;4494329;31;34594;-87
2023/06/24 01:34:22;;;;;;;0.45;0.45;;;;;;;21.41;64.63;99970.66;4469236;31;33559;-88
2023/06/24 01:37:12;;;;;;;1.08;0.98;;;;;;;21.40;64.65;99975.16;4461962;32;33829;-88
2023/06/24 01:39:50;;;;;;;0.60;0.60;;;;;;;21.44;63.11;99967.72;4459939;31;33189;-89
2023/06/24 01:42:19;;;;;;;1.00;0.52;;;;;;;21.12;64.48;99971.28;4457915;31;32856;-89
2023/06/24 01:44:48;;;;;;;0.82;0.77;;;;;;;21.16;64.19;99959.28;4466744;31;31776;-88
2023/06/24 01:47:20;;;;;;;1.00;0.82;;;;;;;21.35;63.55;99957.75;4463142;31;32770;-88
2023/06/24 01:49:49;;;;;;;1.75;1.62;;;;;;;21.21;63.97;99957.06;4474325;31;33339;-89
2023/06/24 01:52:21;;;;;;;0.88;0.80;;;;;;;20.83;66.43;99962.16;4469208;31;33830;-86
2023/06/24 01:54:50;;;;;;;0.30;0.30;;;;;;;21.30;63.86;99952.75;4479645;31;33913;-85
2023/06/24 01:57:20;;;;;;;1.48;0.77;;;;;;;20.95;65.35;99951.25;4462553;31;33097;-86
2023/06/24 01:59:48;;;;;;;1.05;1.05;;;;;;;21.03;64.62;99952.41;4467323;31;34692;-86
2023/06/24 02:02:20;;;;;;;0.28;0.28;;;;;;;21.11;64.11;99940.03;4468757;31;33546;-86
2023/06/24 02:04:49;;;;;;;0.88;0.55;;;;;;;21.12;63.93;99930.16;4440694;31;34117;-83
2023/06/24 02:07:18;;;;;;;2.90;0.93;;;;;;;21.37;62.98;99935.16;4463987;31;32474;-83
2023/06/24 02:09:48;;;;;;;1.37;0.73;;;;;;;20.91;64.81;99939.06;4468897;31;33412;-83
2023/06/24 02:12:16;;;;;;;1.17;0.65;;;;;;;21.05;64.26;99940.56;4466152;31;32974;-83
2023/06/24 02:14:45;;;;;;;0.70;0.70;;;;;;;21.14;63.64;99945.16;4464751;31;32919;-84
2023/06/24 02:17:13;;;;;;;0.82;0.62;;;;;;;21.02;64.43;99950.72;4481925;31;34529;-84
2023/06/24 02:19:42;;;;;;;0.17;0.17;;;;;;;21.23;63.86;99965.00;4487983;31;34045;-84
2023/06/24 02:22:10;;;;;;;0.37;0.37;;;;;;;21.25;63.39;99964.88;4487501;31;33565;-84
2023/06/24 02:24:38;;;;;;;0.88;0.88;;;;;;;21.44;62.73;99954.28;4455860;31;32599;-84
2023/06/24 02:27:06;;;;;;;4.50;1.15;;;;;;;21.36;62.67;99954.94;4483326;31;33775;-83
2023/06/24 02:29:35;;;;;;;1.27;1.17;;;;;;;21.50;62.06;99952.88;4460852;31;32454;-83
2023/06/24 02:32:04;;;;;;;0.45;0.45;;;;;;;21.68;61.72;99956.66;4473181;31;33466;-83
2023/06/24 02:34:31;;;;;;;2.37;0.60;;;;;;;20.87;64.79;99956.41;4488696;31;33493;-82
2023/06/24 02:36:59;;;;;;;0.43;0.43;;;;;;;21.35;62.94;99958.59;4472381;31;32401;-83
2023/06/24 02:39:28;;;;;;;0.37;0.37;;;;;;;21.50;62.41;99966.31;4490971;31;35254;-82
2023/06/24 02:41:55;;;;;;;0.32;0.32;;;;;;;21.33;63.30;99965.97;4464629;31;33899;-83
2023/06/24 02:44:23;;;;;;;1.02;0.98;;;;;;;21.59;61.88;99966.38;4484207;31;32075;-84
2023/06/24 02:46:53;;;;;;;2.85;1.00;;;;;;;21.29;63.32;99963.63;4490950;31;34015;-84
2023/06/24 02:49:21;;;;;;;0.68;0.62;;;;;;;21.61;61.70;99961.72;4483805;31;34923;-84
2023/06/24 02:51:49;;;;;;;0.40;0.40;;;;;;;21.21;62.87;99970.50;4470844;31;34598;-84
2023/06/24 02:54:17;;;;;;;1.92;1.27;;;;;;;21.15;63.63;99967.50;4469667;31;33238;-84
2023/06/24 02:56:45;;;;;;;0.45;0.45;;;;;;;21.16;62.79;99967.34;4457441;31;32555;-84
2023/06/24 02:59:14;;;;;;;8.88;1.40;;;;;;;20.92;63.90;99980.16;4487880;31;34675;-84
2023/06/24 03:01:45;;;;;;;0.68;0.68;;;;;;;21.06;63.10;99979.00;4484809;31;33848;-84
2023/06/24 03:04:13;;;;;;;1.15;1.00;;;;;;;20.63;64.88;99993.31;4479948;31;34129;-83
2023/06/24 03:06:41;;;;;;;1.05;1.05;;;;;;;21.06;62.91;99995.97;4483182;31;33125;-83
2023/06/24 03:09:09;;;;;;;1.02;0.30;;;;;;;21.05;63.44;99993.41;4473869;31;33320;-84
2023/06/24 03:11:41;;;;;;;1.45;0.95;;;;;;;21.38;61.92;99995.09;4485753;31;34498;-84
2023/06/24 03:14:10;;;;;;;0.82;0.60;;;;;;;21.33;61.75;99991.97;4472543;31;34027;-83
2023/06/24 03:16:38;;;;;;;0.93;0.93;;;;;;;21.46;61.07;99987.25;4482763;31;33487;-85
2023/06/24 03:19:06;;;;;;;0.40;0.40;;;;;;;21.20;61.87;99992.13;4482274;31;34020;-85
2023/06/24 03:21:34;;;;;;;0.80;0.52;;;;;;;20.96;62.65;99978.94;4483713;31;34688;-87
2023/06/24 03:24:02;;;;;;;0.30;0.28;;;;;;;20.78;63.45;99985.84;4471323;31;32189;-86
2023/06/24 03:26:37;;;;;;;0.43;0.43;;;;;;;20.68;64.04;99978.53;4483987;31;33703;-86
2023/06/24 03:29:09;;;;;;;0.25;0.20;;;;;;;20.65;64.22;100007.47;4486354;31;33838;-86
2023/06/24 03:31:43;;;;;;;4.53;1.27;;;;;;;20.64;64.02;99995.88;4474028;31;33806;-86
2023/06/24 03:34:13;;;;;;;0.32;0.32;;;;;;;20.95;62.37;99990.66;4482491;31;33137;-84
2023/06/24 03:36:41;;;;;;;1.33;1.23;;;;;;;20.86;62.60;99994.09;4474056;31;33132;-85
2023/06/24 03:39:08;;;;;;;0.30;0.20;;;;;;;20.35;64.17;100002.75;4465871;31;34080;-84
2023/06/24 03:41:37;;;;;;;0.70;0.37;;;;;;;20.14;65.30;100011.56;4472833;31;33749;-86
2023/06/24 03:44:04;;;;;;;0.40;0.40;;;;;;;20.69;62.78;100003.53;4489205;31;33512;-85
2023/06/24 03:46:33;;;;;;;0.60;0.60;;;;;;;20.49;64.16;100010.56;4488315;31;33222;-85
2023/06/24 03:49:00;;;;;;;0.40;0.40;;;;;;;20.40;63.86;100019.31;4460133;31;32689;-86
2023/06/24 03:51:28;;;;;;;0.40;0.22;;;;;;;20.77;62.46;100027.94;4487366;31;33539;-85
2023/06/24 03:53:56;;;;;;;0.93;0.90;;;;;;;21.08;60.95;100020.88;4480660;31;33400;-85
2023/06/24 03:56:24;;;;;;;0.32;0.32;;;;;;;20.76;62.56;100034.28;4474457;31;32604;-86
2023/06/24 03:58:52;;;;;;;0.62;0.62;;;;;;;20.64;62.70;100036.13;4472949;31;34669;-86
2023/06/24 04:01:19;;;;;;;0.98;0.55;;;;;;;20.84;62.16;100041.69;4469146;31;32349;-86
2023/06/24 04:03:48;;;;;;;0.05;0.05;;;;;;;21.20;60.42;100040.44;4488988;31;33273;-86
2023/06/24 04:06:16;;;;;;;1.65;0.55;;;;;;;21.32;60.12;100050.22;4492452;31;34644;-86
2023/06/24 04:08:43;;;;;;;0.15;0.15;;;;;;;20.89;61.79;100059.12;4482226;31;34743;-86
2023/06/24 04:11:12;;;;;;;0.20;0.20;;;;;;;20.93;61.40;100057.87;4470008;31;33077;-86
2023/06/24 04:13:40;;;;;;;0.37;0.20;;;;;;;21.16;60.16;100053.28;4482829;31;33424;-86
2023/06/24 04:16:07;;;;;;;0.00;0.00;;;;;;;21.42;59.44;100066.41;4490975;31;33699;-87
2023/06/24 05:32:44;;;;;;;0.00;0.00;;;;;;;22.98;53.63;100050.00;4483498;31;35534;-88
2023/06/24 05:35:12;;;;;;;0.08;0.08;;;;;;;22.67;54.74;100058.13;4456050;31;33143;-88
2023/06/24 05:37:40;;;;;;;0.10;0.10;;;;;;;22.84;53.70;100061.16;4482674;31;34164;-87
2023/06/24 05:40:09;;;;;;;0.00;0.00;;;;;;;22.79;54.37;100068.75;4454639;31;34655;-88
2023/06/24 05:42:37;;;;;;;0.00;0.00;;;;;;;22.61;55.01;100064.06;4437691;32;32532;-85
2023/06/24 05:45:06;;;;;;;13.73;0.50;;;;;;;22.28;55.85;100069.75;4439998;31;33851;-85
2023/06/24 05:47:33;;;;;;;0.20;0.10;;;;;;;22.60;54.86;100078.50;4451471;31;33353;-87
2023/06/24 05:50:01;;;;;;;0.00;0.00;;;;;;;22.91;53.86;100073.06;4440063;31;33390;-87
2023/06/24 05:52:29;;;;;;;0.00;0.00;;;;;;;22.81;54.14;100082.94;4443673;31;32831;-86
2023/06/24 05:54:56;;;;;;;0.00;0.00;;;;;;;22.59;55.24;100079.47;4479006;31;32191;-87
2023/06/24 05:57:24;;;;;;;0.00;0.00;;;;;;;22.94;54.08;100089.81;4445545;31;32478;-87
2023/06/24 05:59:52;;;;;;;0.52;0.20;;;;;;;22.86;54.41;100080.69;4476090;31;33959;-87
2023/06/24 06:02:19;;;;;;;0.00;0.00;;;;;;;23.09;54.46;100092.94;4451601;31;33259;-87
2023/06/24 06:04:47;;;;;;;0.00;0.00;;;;;;;23.56;52.76;100093.09;4441627;32;32893;-84
2023/06/24 06:07:15;;;;;;;0.00;0.00;;;;;;;23.44;53.22;100091.53;4460488;31;33340;-88
2023/06/24 06:09:43;;;;;;;0.08;0.08;;;;;;;23.66;52.50;100099.34;4452472;31;33214;-86
2023/06/24 06:12:11;;;;;;;0.57;0.20;;;;;;;23.79;52.06;100098.22;4458023;31;32594;-87
2023/06/24 06:14:39;;;;;;;0.00;0.00;;;;;;;23.74;52.26;100095.97;4450425;31;32396;-87
2023/06/24 06:17:07;;;;;;;0.00;0.00;;;;;;;23.57;53.21;100096.66;4466186;31;32407;-85
2023/06/24 06:19:35;;;;;;;0.08;0.08;;;;;;;23.63;54.11;100113.09;4461891;31;31359;-87
2023/06/24 06:22:03;;;;;;;0.00;0.00;;;;;;;23.34;54.32;100112.25;4460901;32;34064;-86
2023/06/24 06:25:07;;;;;;;0.00;0.00;;;;;;;23.94;51.45;100102.16;4438650;31;34227;-87
2023/06/24 06:27:35;;;;;;;0.00;0.00;;;;;;;23.80;52.23;100103.47;4454647;31;33740;-87
2023/06/24 06:30:04;;;;;;;0.52;0.20;;;;;;;23.62;52.13;100105.16;4466864;31;33894;-88
2023/06/24 06:32:32;;;;;;;0.00;0.00;;;;;;;23.63;52.26;100115.78;4448375;32;34530;-87
2023/06/24 06:35:00;;;;;;;0.00;0.00;;;;;;;23.75;51.88;100111.13;4428440;31;34654;-87
2023/06/24 06:37:27;;;;;;;0.22;0.22;;;;;;;23.93;51.89;100106.72;4461421;31;32414;-86
2023/06/24 06:39:55;;;;;;;0.10;0.10;;;;;;;23.90;51.92;100114.22;4450726;31;33657;-89
2023/06/24 06:42:25;;;;;;;0.00;0.00;;;;;;;23.52;53.38;100115.94;4451285;31;33050;-87
2023/06/24 07:36:13;;;;;;;0.10;0.10;;;;;;;25.70;49.47;100112.69;4476242;31;34246;-87
2023/06/24 07:38:41;;;;;;;0.10;0.10;;;;;;;25.76;49.68;100116.66;4461314;31;33931;-87
2023/06/24 07:41:09;;;;;;;0.00;0.00;;;;;;;25.41;49.80;100136.44;4470604;31;34077;-86
2023/06/24 07:43:36;;;;;;;0.10;0.00;;;;;;;25.60;50.07;100141.69;4462971;31;32414;-87
2023/06/24 07:46:04;;;;;;;0.28;0.28;;;;;;;26.12;48.81;100133.69;4459299;31;32362;-86
2023/06/24 07:48:32;;;;;;;0.20;0.20;;;;;;;26.33;48.36;100136.00;4457928;32;33746;-86
2023/06/24 07:50:59;;;;;;;0.10;0.10;;;;;;;26.39;47.59;100120.97;4464221;31;33269;-86
2023/06/24 07:53:27;;;;;;;2.95;0.10;;;;;;;25.79;49.23;100129.88;4464376;31;31908;-86
2023/06/24 07:55:54;;;;;;;0.10;0.10;;;;;;;26.19;48.08;100129.31;4459745;31;33570;-87
2023/06/24 07:58:22;;;;;;;0.22;0.22;;;;;;;25.86;48.57;100124.69;4479069;31;33477;-86
2023/06/24 08:00:49;;;;;;;0.88;0.88;;;;;;;25.79;49.05;100125.31;4457274;31;32836;-86
2023/06/24 08:03:17;;;;;;;0.10;0.10;;;;;;;26.44;47.39;100130.31;4461296;31;32316;-87
2023/06/24 08:05:45;;;;;;;0.62;0.62;;;;;;;25.77;48.37;100130.00;4466114;31;33972;-86
2023/06/24 08:08:16;;;;;;;0.05;0.05;;;;;;;26.15;48.51;100132.50;4474064;31;34920;-87
2023/06/24 08:10:43;;;;;;;0.65;0.30;;;;;;;26.67;48.14;100136.03;4476365;31;33870;-86
2023/06/24 08:13:11;;;;;;;0.20;0.17;;;;;;;26.90;46.35;100132.72;4466080;31;32067;-86
2023/06/24 08:15:38;;;;;;;0.15;0.08;;;;;;;26.80;45.67;100133.72;4465779;31;34354;-86
2023/06/24 08:18:09;;;;;;;0.52;0.52;;;;;;;26.50;46.89;100136.97;4463463;31;33622;-86
2023/06/24 08:20:36;;;;;;;0.32;0.20;;;;;;;26.78;45.99;100141.16;4490534;31;34040;-86
2023/06/24 08:23:06;;;;;;;1.65;0.60;;;;;;;26.58;47.14;100146.97;4477542;31;33344;-86
2023/06/24 08:25:34;;;;;;;0.15;0.15;;;;;;;26.63;46.18;100142.78;4476400;31;33828;-86
2023/06/24 08:28:02;;;;;;;0.13;0.13;;;;;;;26.68;46.34;100135.03;4477597;31;33848;-87
2023/06/24 08:30:30;;;;;;;0.08;0.08;;;;;;;26.43;47.89;100127.78;4463365;31;32579;-86
2023/06/24 08:32:57;;;;;;;0.20;0.20;;;;;;;26.81;47.45;100135.41;4478333;31;32742;-86
2023/06/24 08:35:26;;;;;;;0.10;0.10;;;;;;;26.95;46.20;100141.22;4479050;31;34381;-87
2023/06/24 08:37:53;;;;;;;0.20;0.20;;;;;;;26.90;46.58;100144.41;4480053;31;34762;-88
2023/06/24 08:40:21;;;;;;;0.20;0.20;;;;;;;26.89;46.98;100153.56;4475263;31;33923;-87
2023/06/24 08:42:49;;;;;;;0.00;0.00;;;;;;;26.92;45.90;100147.81;4462987;31;33391;-86
2023/06/24 08:45:17;;;;;;;0.00;0.00;;;;;;;27.21;46.33;100144.72;4451434;31;33144;-86
2023/06/24 08:47:47;;;;;;;0.22;0.20;;;;;;;26.64;46.26;100139.06;4464855;31;32504;-87
2023/06/24 08:50:16;;;;;;;2.65;0.30;;;;;;;26.84;45.58;100138.81;4464705;31;32289;-86
2023/06/24 08:52:49;;;;;;;0.03;0.03;;;;;;;26.93;45.28;100140.53;4467629;31;32884;-86
2023/06/24 08:55:17;;;;;;;0.00;0.00;;;;;;;26.10;47.63;100148.34;4474526;31;33437;-86
2023/06/24 08:57:46;;;;;;;0.10;0.10;;;;;;;26.24;46.95;100159.44;4461272;32;34718;-86
2023/06/24 09:00:14;;;;;;;0.22;0.22;;;;;;;25.65;48.83;100162.87;4462871;31;33028;-86
2023/06/24 09:02:42;;;;;;;0.10;0.10;;;;;;;26.32;47.21;100149.69;4475874;31;31982;-86
2023/06/24 09:05:13;;;;;;;0.10;0.10;;;;;;;25.90;48.36;100140.44;4467636;31;33838;-86
2023/06/24 09:07:40;;;;;;;0.17;0.10;;;;;;;26.07;47.33;100127.06;4463942;31;34936;-86
2023/06/24 09:10:09;;;;;;;0.05;0.05;;;;;;;26.00;48.58;100134.94;4465093;31;32040;-86
2023/06/24 09:12:36;;;;;;;0.10;0.10;;;;;;;25.82;49.60;100147.62;4477517;31;33342;-86
2023/06/24 09:15:04;;;;;;;0.17;0.15;;;;;;;25.52;49.74;100142.44;4449752;31;32036;-86
2023/06/24 09:17:32;;;;;;;0.35;0.32;;;;;;;25.70;49.23;100134.34;4463550;31;33421;-87
2023/06/24 09:20:05;;;;;;;0.20;0.03;;;;;;;26.35;48.50;100138.53;4464912;31;33621;-87
2023/06/24 09:22:33;;;;;;;0.10;0.10;;;;;;;26.35;48.84;100150.22;4458750;31;31859;-86
2023/06/24 09:25:01;;;;;;;0.43;0.43;;;;;;;26.81;47.77;100146.25;4466778;31;32418;-87
2023/06/24 09:27:31;;;;;;;0.17;0.13;;;;;;;26.87;46.80;100144.75;4476092;31;34160;-87
2023/06/24 09:29:59;;;;;;;0.30;0.30;;;;;;;27.23;46.34;100139.13;4462487;32;35635;-86
2023/06/24 09:32:30;;;;;;;0.17;0.17;;;;;;;27.55;47.06;100132.91;4479127;31;32666;-86
2023/06/24 09:34:58;;;;;;;1.40;1.30;;;;;;;27.60;44.42;100130.53;4463479;31;32583;-87
2023/06/24 09:37:32;;;;;;;3.03;1.20;;;;;;;27.83;45.11;100128.03;4464922;32;33664;-86
2023/06/24 09:40:01;;;;;;;0.10;0.10;;;;;;;27.89;42.77;100131.91;4465886;31;32340;-86
2023/06/24 09:42:29;;;;;;;0.08;0.08;;;;;;;27.65;43.74;100122.72;4477141;31;34071;-86
2023/06/24 09:44:57;;;;;;;0.10;0.10;;;;;;;27.19;45.25;100111.50;4449842;31;33240;-86
2023/06/24 09:47:26;;;;;;;0.00;0.00;;;;;;;26.92;46.65;100125.28;4476727;31;34077;-87
2023/06/24 09:49:54;;;;;;;0.57;0.50;;;;;;;26.97;46.16;100128.37;4464046;31;32374;-86
2023/06/24 09:52:22;;;;;;;0.20;0.20;;;;;;;27.42;45.70;100132.56;4464538;31;31776;-86
2023/06/24 09:54:51;;;;;;;0.00;0.00;;;;;;;27.25;46.44;100132.53;4450872;31;32953;-86
2023/06/24 09:57:27;;;;;;;0.10;0.10;;;;;;;27.42;45.84;100133.41;4465453;31;33995;-86
2023/06/24 09:59:54;;;;;;;0.40;0.40;;;;;;;27.65;44.37;100128.16;4474831;31;33112;-86
2023/06/24 10:02:23;;;;;;;0.10;0.10;;;;;;;27.45;44.89;100126.81;4466940;31;33263;-86
2023/06/24 10:04:52;;;;;;;0.00;0.00;;;;;;;27.35;45.15;100113.41;4464688;31;33875;-86
2023/06/24 10:07:20;;;;;;;1.37;0.25;;;;;;;27.46;46.30;100117.66;4464067;31;32916;-86
2023/06/24 10:09:48;;;;;;;0.10;0.10;;;;;;;27.86;44.74;100114.09;4472777;31;33451;-86
2023/06/24 10:12:16;;;;;;;0.20;0.20;;;;;;;27.97;44.46;100105.63;4469443;31;33473;-86
2023/06/24 10:14:44;;;;;;;0.45;0.30;;;;;;;27.71;45.55;100111.22;4462620;31;32870;-86
2023/06/24 10:17:12;;;;;;;0.20;0.20;;;;;;;28.25;45.23;100103.34;4477240;31;34754;-86
2023/06/24 10:19:40;;;;;;;0.10;0.10;;;;;;;27.97;44.73;100104.78;4465226;31;33658;-86
2023/06/24 10:22:12;;;;;;;0.10;0.10;;;;;;;27.79;44.86;100105.81;4476574;31;34142;-85
2023/06/24 10:24:44;;;;;;;0.37;0.22;;;;;;;27.57;45.14;100114.59;4480857;31;34021;-86
2023/06/24 10:27:22;;;;;;;0.20;0.20;;;;;;;27.05;46.49;100102.09;4478068;31;31384;-86
2023/06/24 10:29:55;;;;;;;0.00;0.00;;;;;;;27.85;44.47;100100.72;4476001;31;34536;-86
2023/06/24 10:32:23;;;;;;;0.05;0.05;;;;;;;27.63;45.52;100097.66;4467074;32;33437;-85
2023/06/24 10:34:56;;;;;;;0.57;0.32;;;;;;;27.90;44.59;100088.31;4481084;31;33841;-86
2023/06/24 10:37:25;;;;;;;0.20;0.20;;;;;;;28.08;44.80;100090.84;4463960;31;32522;-85
2023/06/24 10:39:54;;;;;;;0.00;0.00;;;;;;;28.07;44.17;100084.56;4464589;31;33303;-86
2023/06/24 10:42:29;;;;;;;0.15;0.10;;;;;;;28.40;43.73;100089.94;4463487;31;32161;-86
2023/06/24 10:45:09;;;;;;;0.10;0.10;;;;;;;28.68;43.06;100089.50;4478168;31;34697;-86
2023/06/24 10:47:38;;;;;;;0.30;0.30;;;;;;;28.54;42.88;100097.34;4491808;31;33206;-87
2023/06/24 10:50:07;;;;;;;0.25;0.25;;;;;;;28.44;44.06;100098.56;4466262;31;32355;-86
2023/06/24 10:52:46;;;;;;;0.30;0.20;;;;;;;28.50;43.68;100095.16;4478445;31;33090;-86
2023/06/24 10:55:15;;;;;;;0.20;0.20;;;;;;;28.89;41.68;100095.13;4464288;31;33586;-86
2023/06/24 10:57:44;;;;;;;0.10;0.10;;;;;;;28.59;43.08;100102.25;4475122;31;33910;-86
2023/06/24 11:00:13;;;;;;;0.08;0.08;;;;;;;28.89;42.87;100106.00;4463184;31;32454;-86
2023/06/24 11:02:40;;;;;;;0.32;0.30;;;;;;;28.91;41.94;100103.09;4465001;31;33415;-86
2023/06/24 11:05:08;;;;;;;0.00;0.00;;;;;;;28.80;41.50;100121.50;4463986;31;33744;-86
2023/06/24 11:07:39;;;;;;;8.68;0.60;;;;;;;28.47;42.87;100103.66;4478020;32;34056;-86
2023/06/24 11:10:10;;;;;;;0.22;0.17;;;;;;;28.59;43.03;100099.53;4478306;31;33465;-86
2023/06/24 11:12:41;;;;;;;0.05;0.05;;;;;;;29.18;41.92;100093.63;4474729;31;31871;-86
2023/06/24 11:15:11;;;;;;;0.30;0.30;;;;;;;28.83;42.90;100113.00;4461817;31;32941;-86
2023/06/24 11:17:39;;;;;;;0.30;0.20;;;;;;;29.37;41.73;100106.75;4466093;31;33026;-87
2023/06/24 11:20:12;;;;;;;0.10;0.10;;;;;;;29.40;42.65;100105.56;4477743;31;34546;-86
2023/06/24 11:22:40;;;;;;;0.10;0.10;;;;;;;29.43;42.14;100097.87;4476277;31;33089;-86
2023/06/24 11:25:18;;;;;;;0.30;0.15;;;;;;;29.46;42.45;100091.22;4465083;31;33085;-86
2023/06/24 11:27:46;;;;;;;0.00;0.00;;;;;;;29.07;44.02;100092.19;4465738;31;34858;-86
2023/06/24 11:30:14;;;;;;;0.20;0.20;;;;;;;29.42;42.36;100095.34;4476898;31;32615;-86
2023/06/24 11:32:43;;;;;;;0.40;0.40;;;;;;;29.30;43.11;100093.03;4463557;31;31926;-86
2023/06/24 11:35:14;;;;;;;0.20;0.15;;;;;;;29.49;41.60;100085.44;4447752;31;33350;-87
2023/06/24 11:37:43;;;;;;;0.10;0.10;;;;;;;29.49;42.22;100075.38;4475154;31;34448;-87
2023/06/24 11:40:12;;;;;;;0.00;0.00;;;;;;;29.57;42.90;100074.50;4464850;31;33460;-87
2023/06/24 11:42:41;;;;;;;0.10;0.10;;;;;;;29.44;41.70;100075.09;4470565;31;33214;-86
2023/06/24 11:45:12;;;;;;;0.28;0.28;;;;;;;29.66;42.54;100065.22;4457389;31;32466;-87
2023/06/24 11:47:43;;;;;;;0.17;0.17;;;;;;;29.20;44.16;100070.69;4463645;31;33596;-86
2023/06/24 11:50:11;;;;;;;0.00;0.00;;;;;;;29.55;40.81;100055.62;4490252;31;33969;-86
2023/06/24 11:52:43;;;;;;;0.10;0.10;;;;;;;29.08;42.13;100063.97;4472401;31;33811;-87
2023/06/24 11:55:23;;;;;;;0.00;0.00;;;;;;;28.94;44.38;100048.41;4459812;31;33502;-87
2023/06/24 11:57:57;;;;;;;0.40;0.32;;;;;;;28.91;43.77;100051.47;4458848;31;33301;-86
2023/06/24 12:00:27;;;;;;;0.10;0.03;;;;;;;29.08;43.24;100053.94;4486012;31;33379;-86
2023/06/24 12:03:00;;;;;;;0.05;0.05;;;;;;;29.31;43.39;100062.09;4460398;31;31750;-86
2023/06/24 12:05:30;;;;;;;0.17;0.17;;;;;;;29.52;42.41;100044.22;4474521;31;33081;-87
2023/06/24 12:08:00;;;;;;;0.20;0.20;;;;;;;29.22;43.64;100041.44;4464344;31;32609;-86
2023/06/24 12:10:29;;;;;;;0.43;0.43;;;;;;;29.60;41.96;100036.03;4464558;31;34132;-87
2023/06/24 12:12:58;;;;;;;0.28;0.20;;;;;;;29.30;42.61;100044.09;4465541;31;31716;-87
2023/06/24 12:15:27;;;;;;;2.05;0.85;;;;;;;29.32;42.60;100038.47;4458876;31;32835;-87
2023/06/24 12:17:55;;;;;;;0.05;0.05;;;;;;;29.43;42.38;100042.62;4463317;31;34847;-85
2023/06/24 12:20:24;;;;;;;0.50;0.20;;;;;;;29.81;41.49;100038.03;4454996;31;32640;-87
2023/06/24 12:22:56;;;;;;;0.55;0.10;;;;;;;29.90;41.11;100034.19;4478296;31;33350;-86
2023/06/24 12:25:24;;;;;;;0.28;0.28;;;;;;;29.73;41.74;100028.09;4466069;31;32633;-86
2023/06/24 12:27:51;;;;;;;0.10;0.10;;;;;;;29.89;40.68;100031.66;4463794;31;33047;-86
2023/06/24 12:30:20;;;;;;;0.20;0.20;;;;;;;29.90;41.53;100017.03;4463486;32;34203;-86
2023/06/24 12:32:51;;;;;;;0.20;0.20;;;;;;;29.61;41.46;100026.84;4464893;31;32590;-86
2023/06/24 12:35:19;;;;;;;0.10;0.10;;;;;;;29.26;42.76;100034.59;4458029;31;32292;-86
2023/06/24 12:37:47;;;;;;;0.40;0.40;;;;;;;28.91;43.41;100032.44;4465634;31;33668;-86
2023/06/24 12:40:15;;;;;;;0.00;0.00;;;;;;;28.78;43.91;100039.31;4485487;31;33855;-86
2023/06/24 12:42:43;;;;;;;0.28;0.28;;;;;;;29.29;43.82;100025.22;4476331;31;33772;-87
2023/06/24 12:45:10;;;;;;;0.00;0.00;;;;;;;29.29;44.18;100020.66;4464672;31;33480;-86
2023/06/24 12:47:38;;;;;;;0.15;0.10;;;;;;;29.25;43.07;100029.34;4475305;32;33922;-86
2023/06/24 12:50:06;;;;;;;1.45;0.37;;;;;;;29.32;42.43;100022.97;4491783;31;34028;-86
2023/06/24 12:52:36;;;;;;;0.10;0.05;;;;;;;29.56;42.60;100010.22;4474400;31;32260;-86
2023/06/24 12:55:06;;;;;;;0.17;0.17;;;;;;;29.96;42.36;100005.38;4463442;31;33336;-86
2023/06/24 12:57:35;;;;;;;0.47;0.47;;;;;;;29.64;42.83;99995.72;4474874;31;32863;-87
2023/06/24 13:00:07;;;;;;;0.00;0.00;;;;;;;29.98;42.66;100004.16;4464879;31;32104;-87
2023/06/24 13:02:35;;;;;;;0.13;0.13;;;;;;;29.95;42.06;99999.09;4477739;31;31546;-87
2023/06/24 13:05:03;;;;;;;0.28;0.10;;;;;;;29.59;42.50;100004.44;4461818;31;32768;-87
2023/06/24 13:07:31;;;;;;;0.52;0.32;;;;;;;29.75;42.19;100003.41;4466481;31;33956;-87
2023/06/24 13:10:01;;;;;;;1.60;0.30;;;;;;;29.66;42.37;100018.97;4477391;31;33813;-86
2023/06/24 13:12:28;;;;;;;0.73;0.73;;;;;;;29.09;43.43;100024.88;4476398;31;32592;-87
2023/06/24 13:14:56;;;;;;;0.10;0.10;;;;;;;29.24;43.64;100023.03;4464681;31;32254;-87
2023/06/24 13:17:24;;;;;;;0.00;0.00;;;;;;;29.24;43.75;100023.03;4476117;31;34018;-87
2023/06/24 13:19:52;;;;;;;0.00;0.00;;;;;;;29.04;43.63;100024.56;4480161;31;33819;-87
2023/06/24 13:22:20;;;;;;;0.62;0.62;;;;;;;29.68;44.00;100030.53;4464536;31;32848;-87
2023/06/24 13:24:48;;;;;;;0.52;0.35;;;;;;;29.76;43.46;100027.69;4465675;31;33309;-87
2023/06/24 13:27:16;;;;;;;0.77;0.52;;;;;;;29.83;42.26;100028.66;4475425;31;33638;-87
2023/06/24 13:29:44;;;;;;;0.35;0.30;;;;;;;29.48;42.15;100034.75;4459685;31;32216;-87
2023/06/24 13:32:11;;;;;;;0.60;0.60;;;;;;;29.06;43.44;100036.13;4463363;31;34356;-86
2023/06/24 13:34:41;;;;;;;0.50;0.50;;;;;;;29.57;42.93;100020.06;4461580;31;33275;-87
2023/06/24 13:37:09;;;;;;;0.37;0.37;;;;;;;29.82;42.49;100020.69;4475646;31;34325;-87
2023/06/24 13:39:37;;;;;;;0.47;0.20;;;;;;;29.43;43.74;100029.84;4460397;32;33767;-87
2023/06/24 13:42:05;;;;;;;0.28;0.28;;;;;;;29.62;42.95;100027.69;4463843;31;33463;-87